createdAt,value
2023-12-18T00:00:47.974Z,1011.36
2023-12-18T00:01:47.922Z,1011.23
2023-12-18T00:02:47.926Z,1011.19
2023-12-18T00:03:48.770Z,1011.13
2023-12-18T00:04:47.913Z,1011.09
2023-12-18T00:05:47.918Z,1011.09
2023-12-18T00:06:47.876Z,1011.06
2023-12-18T00:07:47.890Z,1011.02
2023-12-18T00:08:47.888Z,1011.07
2023-12-18T00:09:47.848Z,1011.07
2023-12-18T00:10:47.852Z,1011.09
2023-12-18T00:11:47.845Z,1011.05
2023-12-18T00:12:47.840Z,1011.04
2023-12-18T00:13:47.855Z,1011.11
2023-12-18T00:14:47.846Z,1011.06
2023-12-18T00:15:47.857Z,1011.04
2023-12-18T00:16:47.804Z,1011.10
2023-12-18T00:17:48.088Z,1011.07
2023-12-18T00:18:47.983Z,1011.06
2023-12-18T00:19:47.864Z,1011.11
2023-12-18T00:20:47.791Z,1011.11
2023-12-18T00:21:47.838Z,1011.18
2023-12-18T00:22:47.764Z,1011.10
2023-12-18T00:23:47.812Z,1011.11
2023-12-18T00:24:47.753Z,1011.03
2023-12-18T00:25:47.759Z,1011.05
2023-12-18T00:26:47.809Z,1011.04
2023-12-18T00:27:48.155Z,1010.96
2023-12-18T00:28:47.765Z,1010.90
2023-12-18T00:29:47.721Z,1010.88
2023-12-18T00:30:47.802Z,1010.83
2023-12-18T00:31:47.704Z,1010.83
2023-12-18T00:32:47.719Z,1010.84
2023-12-18T00:33:47.808Z,1010.83
2023-12-18T00:34:47.802Z,1010.95
2023-12-18T00:35:47.706Z,1010.92
2023-12-18T00:36:47.980Z,1010.98
2023-12-18T00:37:47.681Z,1011.00
2023-12-18T00:38:47.670Z,1011.00
2023-12-18T00:39:47.690Z,1011.08
2023-12-18T00:40:47.679Z,1011.04
2023-12-18T00:41:47.658Z,1011.08
2023-12-18T00:42:47.636Z,1011.05
2023-12-18T00:43:49.034Z,1011.05
2023-12-18T00:44:47.653Z,1011.05
2023-12-18T00:45:47.640Z,1010.98
2023-12-18T00:46:47.634Z,1011.04
2023-12-18T00:47:47.656Z,1011.06
2023-12-18T00:48:47.708Z,1011.10
2023-12-18T00:49:47.779Z,1011.14
2023-12-18T00:50:47.607Z,1011.18
2023-12-18T00:51:47.587Z,1011.11
2023-12-18T00:52:47.599Z,1011.11
2023-12-18T00:53:47.577Z,1010.97
2023-12-18T00:54:47.601Z,1011.02
2023-12-18T00:55:47.670Z,1011.04
2023-12-18T00:56:47.559Z,1011.09
2023-12-18T00:57:50.440Z,1011.05
2023-12-18T00:58:48.529Z,1011.02
2023-12-18T00:59:47.526Z,1011.01
2023-12-18T01:00:47.620Z,1010.92
2023-12-18T01:01:47.534Z,1010.81
2023-12-18T01:02:47.514Z,1010.76
2023-12-18T01:03:47.615Z,1010.78
2023-12-18T01:04:47.534Z,1010.77
2023-12-18T01:05:47.496Z,1010.71
2023-12-18T01:06:47.558Z,1010.73
2023-12-18T01:07:47.465Z,1010.77
2023-12-18T01:08:47.466Z,1010.83
2023-12-18T01:09:47.466Z,1010.82
2023-12-18T01:10:47.464Z,1010.82
2023-12-18T01:11:47.458Z,1010.84
2023-12-18T01:12:47.489Z,1010.72
2023-12-18T01:13:47.434Z,1010.73
2023-12-18T01:14:47.433Z,1010.76
2023-12-18T01:15:47.657Z,1010.72
2023-12-18T01:16:47.423Z,1010.83
2023-12-18T01:17:47.722Z,1010.82
2023-12-18T01:18:47.797Z,1010.81
2023-12-18T01:19:47.507Z,1010.86
2023-12-18T01:20:47.385Z,1010.91
2023-12-18T01:21:47.405Z,1010.86
2023-12-18T01:22:58.807Z,1010.90
2023-12-18T01:23:48.413Z,1010.88
2023-12-18T01:24:47.367Z,1010.96
2023-12-18T01:25:47.356Z,1010.93
2023-12-18T01:26:47.391Z,1010.95
2023-12-18T01:27:47.434Z,1011.01
2023-12-18T01:28:47.332Z,1011.05
2023-12-18T01:29:47.337Z,1011.07
2023-12-18T01:30:47.397Z,1011.10
2023-12-18T01:31:47.322Z,1011.04
2023-12-18T01:32:47.507Z,1011.13
2023-12-18T01:33:47.686Z,1011.10
2023-12-18T01:34:47.295Z,1011.09
2023-12-18T01:35:47.288Z,1011.06
2023-12-18T01:36:47.301Z,1011.00
2023-12-18T01:37:47.287Z,1010.99
2023-12-18T01:38:47.469Z,1010.96
2023-12-18T01:39:47.327Z,1010.94
2023-12-18T01:40:47.246Z,1010.89
2023-12-18T01:41:47.256Z,1010.77
2023-12-18T01:42:47.385Z,1010.69
2023-12-18T01:43:47.284Z,1010.77
2023-12-18T01:44:47.232Z,1010.77
2023-12-18T01:45:47.258Z,1010.77
2023-12-18T01:46:47.236Z,1010.72
2023-12-18T01:47:47.601Z,1010.68
2023-12-18T01:48:47.461Z,1010.70
2023-12-18T01:49:47.288Z,1010.61
2023-12-18T01:50:47.212Z,1010.56
2023-12-18T01:51:47.206Z,1010.68
2023-12-18T01:52:47.185Z,1010.67
2023-12-18T01:53:47.178Z,1010.68
2023-12-18T01:54:47.195Z,1010.60
2023-12-18T01:55:47.196Z,1010.56
2023-12-18T01:56:47.151Z,1010.59
2023-12-18T01:57:47.266Z,1010.53
2023-12-18T01:58:47.161Z,1010.53
2023-12-18T01:59:47.184Z,1010.51
2023-12-18T02:00:47.347Z,1010.61
2023-12-18T02:01:47.128Z,1010.56
2023-12-18T02:02:47.124Z,1010.50
2023-12-18T02:03:47.196Z,1010.58
2023-12-18T02:04:47.121Z,1010.49
2023-12-18T02:05:47.110Z,1010.60
2023-12-18T02:06:47.233Z,1010.53
2023-12-18T02:07:47.073Z,1010.59
2023-12-18T02:08:47.084Z,1010.56
2023-12-18T02:09:47.088Z,1010.58
2023-12-18T02:10:47.283Z,1010.48
2023-12-18T02:11:47.105Z,1010.43
2023-12-18T02:12:47.122Z,1010.45
2023-12-18T02:13:47.039Z,1010.40
2023-12-18T02:14:47.042Z,1010.23
2023-12-18T02:15:47.765Z,1010.33
2023-12-18T02:16:47.014Z,1010.31
2023-12-18T02:17:47.056Z,1010.24
2023-12-18T02:18:47.182Z,1010.25
2023-12-18T02:19:47.021Z,1010.32
2023-12-18T02:20:47.006Z,1010.42
2023-12-18T02:21:46.990Z,1010.55
2023-12-18T02:22:47.030Z,1010.73
2023-12-18T02:23:46.974Z,1010.73
2023-12-18T02:24:46.997Z,1010.87
2023-12-18T02:25:47.017Z,1010.85
2023-12-18T02:26:46.960Z,1010.77
2023-12-18T02:27:47.262Z,1010.86
2023-12-18T02:28:47.821Z,1010.75
2023-12-18T02:29:47.061Z,1010.79
2023-12-18T02:30:47.039Z,1010.69
2023-12-18T02:31:46.946Z,1010.68
2023-12-18T02:32:46.985Z,1010.65
2023-12-18T02:33:47.047Z,1010.64
2023-12-18T02:34:46.998Z,1010.74
2023-12-18T02:35:46.906Z,1010.70
2023-12-18T02:36:46.977Z,1010.75
2023-12-18T02:37:46.931Z,1010.76
2023-12-18T02:38:46.902Z,1010.80
2023-12-18T02:39:46.904Z,1010.78
2023-12-18T02:40:46.937Z,1010.77
2023-12-18T02:41:46.932Z,1010.66
2023-12-18T02:42:46.861Z,1010.70
2023-12-18T02:43:46.836Z,1010.64
2023-12-18T02:44:46.836Z,1010.66
2023-12-18T02:45:46.869Z,1010.62
2023-12-18T02:46:46.807Z,1010.68
2023-12-18T02:47:47.144Z,1010.58
2023-12-18T02:48:46.966Z,1010.56
2023-12-18T02:49:46.848Z,1010.49
2023-12-18T02:50:46.896Z,1010.60
2023-12-18T02:51:46.824Z,1010.58
2023-12-18T02:52:46.774Z,1010.58
2023-12-18T02:53:46.766Z,1010.53
2023-12-18T02:54:46.759Z,1010.53
2023-12-18T02:55:47.972Z,1010.51
2023-12-18T02:56:46.745Z,1010.50
2023-12-18T02:57:47.223Z,1010.47
2023-12-18T02:58:46.730Z,1010.40
2023-12-18T02:59:46.722Z,1010.44
2023-12-18T03:00:46.826Z,1010.33
2023-12-18T03:01:46.704Z,1010.30
2023-12-18T03:02:46.805Z,1010.27
2023-12-18T03:03:47.052Z,1010.19
2023-12-18T03:04:46.683Z,1010.17
2023-12-18T03:05:47.336Z,1010.29
2023-12-18T03:06:46.675Z,1010.34
2023-12-18T03:07:46.685Z,1010.30
2023-12-18T03:08:46.667Z,1010.25
2023-12-18T03:09:46.702Z,1010.26
2023-12-18T03:10:46.698Z,1010.29
2023-12-18T03:11:46.671Z,1010.29
2023-12-18T03:12:46.676Z,1010.26
2023-12-18T03:13:47.030Z,1010.25
2023-12-18T03:14:46.630Z,1010.31
2023-12-18T03:15:46.858Z,1010.28
2023-12-18T03:16:46.605Z,1010.24
2023-12-18T03:17:47.196Z,1010.24
2023-12-18T03:18:46.701Z,1010.16
2023-12-18T03:19:46.714Z,1010.22
2023-12-18T03:20:46.604Z,1010.19
2023-12-18T03:21:46.617Z,1010.24
2023-12-18T03:22:46.554Z,1010.29
2023-12-18T03:23:46.565Z,1010.36
2023-12-18T03:24:46.576Z,1010.32
2023-12-18T03:25:46.574Z,1010.31
2023-12-18T03:26:46.534Z,1010.20
2023-12-18T03:27:46.580Z,1010.28
2023-12-18T03:28:46.525Z,1010.10
2023-12-18T03:29:46.520Z,1010.10
2023-12-18T03:30:46.667Z,1010.13
2023-12-18T03:31:46.530Z,1010.30
2023-12-18T03:32:46.526Z,1010.31
2023-12-18T03:33:46.598Z,1010.39
2023-12-18T03:34:46.535Z,1010.38
2023-12-18T03:35:46.539Z,1010.29
2023-12-18T03:36:46.493Z,1010.20
2023-12-18T03:37:46.462Z,1010.28
2023-12-18T03:38:46.454Z,1010.16
2023-12-18T03:39:46.476Z,1010.21
2023-12-18T03:40:46.499Z,1010.19
2023-12-18T03:41:46.456Z,1010.26
2023-12-18T03:42:46.450Z,1010.21
2023-12-18T03:43:46.425Z,1010.10
2023-12-18T03:44:46.426Z,1010.06
2023-12-18T03:45:46.490Z,1010.08
2023-12-18T03:46:46.409Z,1010.02
2023-12-18T03:47:46.637Z,1009.94
2023-12-18T03:48:46.636Z,1010.00
2023-12-18T03:49:46.455Z,1010.00
2023-12-18T03:50:46.439Z,1010.11
2023-12-18T03:51:46.513Z,1010.20
2023-12-18T03:52:46.576Z,1010.16
2023-12-18T03:53:46.573Z,1010.18
2023-12-18T03:54:46.685Z,1010.16
2023-12-18T03:55:46.641Z,1010.22
2023-12-18T03:56:46.333Z,1010.15
2023-12-18T03:57:46.897Z,1010.15
2023-12-18T03:58:46.375Z,1010.19
2023-12-18T03:59:46.327Z,1010.31
2023-12-18T04:00:46.426Z,1010.23
2023-12-18T04:01:46.301Z,1010.23
2023-12-18T04:02:46.300Z,1010.18
2023-12-18T04:03:46.388Z,1010.16
2023-12-18T04:04:46.608Z,1010.11
2023-12-18T04:05:46.401Z,1010.10
2023-12-18T04:06:46.311Z,1010.15
2023-12-18T04:07:46.290Z,1010.12
2023-12-18T04:08:46.267Z,1010.15
2023-12-18T04:09:46.313Z,1010.19
2023-12-18T04:10:46.298Z,1010.17
2023-12-18T04:11:46.240Z,1010.16
2023-12-18T04:12:46.958Z,1010.13
2023-12-18T04:13:46.232Z,1010.19
2023-12-18T04:14:46.234Z,1010.15
2023-12-18T04:15:46.244Z,1010.02
2023-12-18T04:16:46.210Z,1010.01
2023-12-18T04:17:46.579Z,1010.06
2023-12-18T04:18:46.440Z,1010.05
2023-12-18T04:19:46.234Z,1010.06
2023-12-18T04:20:46.210Z,1010.14
2023-12-18T04:21:46.223Z,1010.09
2023-12-18T04:22:46.191Z,1010.08
2023-12-18T04:23:46.187Z,1010.07
2023-12-18T04:24:46.176Z,1010.04
2023-12-18T04:25:46.173Z,1010.00
2023-12-18T04:26:46.164Z,1010.11
2023-12-18T04:27:46.515Z,1010.13
2023-12-18T04:28:46.132Z,1010.13
2023-12-18T04:29:46.116Z,1010.13
2023-12-18T04:30:46.198Z,1010.13
2023-12-18T04:31:46.441Z,1010.16
2023-12-18T04:32:46.119Z,1010.13
2023-12-18T04:33:46.185Z,1010.20
2023-12-18T04:34:46.199Z,1010.17
2023-12-18T04:35:46.128Z,1010.16
2023-12-18T04:36:46.265Z,1010.15
2023-12-18T04:37:46.492Z,1010.12
2023-12-18T04:38:46.053Z,1010.06
2023-12-18T04:39:46.132Z,1010.03
2023-12-18T04:40:46.044Z,1010.01
2023-12-18T04:41:46.096Z,1009.98
2023-12-18T04:42:46.389Z,1009.95
2023-12-18T04:43:46.020Z,1009.94
2023-12-18T04:44:46.025Z,1009.86
2023-12-18T04:45:46.095Z,1009.90
2023-12-18T04:46:46.005Z,1009.95
2023-12-18T04:47:46.300Z,1009.92
2023-12-18T04:48:46.067Z,1009.86
2023-12-18T04:49:46.111Z,1009.89
2023-12-18T04:50:45.974Z,1009.87
2023-12-18T04:51:46.054Z,1009.87
2023-12-18T04:52:46.366Z,1009.80
2023-12-18T04:53:46.021Z,1009.90
2023-12-18T04:54:45.995Z,1009.84
2023-12-18T04:55:45.971Z,1009.83
2023-12-18T04:56:45.928Z,1009.87
2023-12-18T04:57:46.009Z,1009.81
2023-12-18T04:58:46.030Z,1009.83
2023-12-18T04:59:45.932Z,1009.85
2023-12-18T05:00:46.292Z,1009.85
2023-12-18T05:01:45.899Z,1009.88
2023-12-18T05:02:45.888Z,1009.95
2023-12-18T05:03:45.999Z,1009.83
2023-12-18T05:04:46.001Z,1009.89
2023-12-18T05:05:45.978Z,1009.85
2023-12-18T05:06:45.986Z,1009.99
2023-12-18T05:07:46.091Z,1009.95
2023-12-18T05:08:45.864Z,1009.89
2023-12-18T05:09:48.984Z,1009.91
2023-12-18T05:10:45.899Z,1009.84
2023-12-18T05:11:46.850Z,1009.82
2023-12-18T05:12:46.063Z,1009.83
2023-12-18T05:13:45.822Z,1009.86
2023-12-18T05:14:45.826Z,1009.87
2023-12-18T05:15:45.910Z,1009.88
2023-12-18T05:16:45.832Z,1009.88
2023-12-18T05:17:45.814Z,1009.86
2023-12-18T05:18:45.883Z,1009.81
2023-12-18T05:19:45.888Z,1009.79
2023-12-18T05:20:45.810Z,1009.74
2023-12-18T05:21:45.820Z,1009.82
2023-12-18T05:22:45.805Z,1009.79
2023-12-18T05:23:45.767Z,1009.84
2023-12-18T05:24:45.781Z,1009.88
2023-12-18T05:25:45.757Z,1009.87
2023-12-18T05:26:45.723Z,1009.93
2023-12-18T05:27:45.856Z,1009.95
2023-12-18T05:28:45.712Z,1009.94
2023-12-18T05:29:45.712Z,1009.94
2023-12-18T05:30:45.807Z,1009.91
2023-12-18T05:31:45.722Z,1009.88
2023-12-18T05:32:46.063Z,1009.86
2023-12-18T05:33:45.836Z,1009.89
2023-12-18T05:34:45.776Z,1010.00
2023-12-18T05:35:45.688Z,1009.96
2023-12-18T05:36:45.710Z,1009.98
2023-12-18T05:37:45.664Z,1009.88
2023-12-18T05:38:45.642Z,1009.94
2023-12-18T05:39:45.701Z,1009.98
2023-12-18T05:40:45.630Z,1010.01
2023-12-18T05:41:45.677Z,1010.07
2023-12-18T05:42:46.037Z,1010.02
2023-12-18T05:43:45.646Z,1010.01
2023-12-18T05:44:45.632Z,1010.06
2023-12-18T05:45:45.741Z,1009.94
2023-12-18T05:46:45.586Z,1010.07
2023-12-18T05:47:45.659Z,1010.00
2023-12-18T05:48:45.687Z,1009.95
2023-12-18T05:49:45.666Z,1009.98
2023-12-18T05:50:45.581Z,1009.96
2023-12-18T05:51:45.556Z,1009.89
2023-12-18T05:52:45.575Z,1009.92
2023-12-18T05:53:45.566Z,1009.95
2023-12-18T05:54:45.568Z,1010.01
2023-12-18T05:55:45.552Z,1010.01
2023-12-18T05:56:45.534Z,1009.97
2023-12-18T05:57:45.550Z,1009.93
2023-12-18T05:58:45.500Z,1010.02
2023-12-18T05:59:45.520Z,1010.00
2023-12-18T06:00:45.624Z,1009.98
2023-12-18T06:01:45.487Z,1010.02
2023-12-18T06:02:45.894Z,1010.05
2023-12-18T06:03:45.569Z,1010.14
2023-12-18T06:04:45.484Z,1010.06
2023-12-18T06:05:45.503Z,1010.06
2023-12-18T06:06:45.588Z,1010.06
2023-12-18T06:07:45.460Z,1010.10
2023-12-18T06:08:45.424Z,1010.20
2023-12-18T06:09:45.545Z,1010.19
2023-12-18T06:10:45.440Z,1010.13
2023-12-18T06:11:45.407Z,1010.14
2023-12-18T06:12:45.753Z,1010.13
2023-12-18T06:13:45.415Z,1010.11
2023-12-18T06:14:45.417Z,1010.11
2023-12-18T06:15:45.453Z,1010.07
2023-12-18T06:16:45.372Z,1010.10
2023-12-18T06:17:45.493Z,1010.03
2023-12-18T06:18:45.504Z,1010.11
2023-12-18T06:19:45.547Z,1010.09
2023-12-18T06:20:45.421Z,1010.04
2023-12-18T06:21:45.377Z,1010.15
2023-12-18T06:22:45.567Z,1010.06
2023-12-18T06:23:45.325Z,1010.04
2023-12-18T06:24:45.342Z,1010.07
2023-12-18T06:25:45.334Z,1010.07
2023-12-18T06:26:45.325Z,1009.99
2023-12-18T06:27:45.327Z,1010.02
2023-12-18T06:28:45.354Z,1009.98
2023-12-18T06:29:45.279Z,1010.02
2023-12-18T06:30:45.335Z,1009.97
2023-12-18T06:31:45.443Z,1010.03
2023-12-18T06:32:45.578Z,1010.00
2023-12-18T06:33:45.342Z,1010.10
2023-12-18T06:34:45.430Z,1010.13
2023-12-18T06:35:45.280Z,1010.12
2023-12-18T06:36:45.421Z,1010.16
2023-12-18T06:37:45.897Z,1010.13
2023-12-18T06:38:45.216Z,1010.03
2023-12-18T06:39:45.310Z,1010.13
2023-12-18T06:40:45.202Z,1010.11
2023-12-18T06:41:45.220Z,1010.07
2023-12-18T06:42:45.581Z,1010.11
2023-12-18T06:43:45.199Z,1010.11
2023-12-18T06:44:45.169Z,1010.07
2023-12-18T06:45:45.241Z,1010.03
2023-12-18T06:46:45.163Z,1010.10
2023-12-18T06:47:45.237Z,1010.05
2023-12-18T06:48:45.290Z,1010.13
2023-12-18T06:49:45.195Z,1010.01
2023-12-18T06:50:45.133Z,1010.02
2023-12-18T06:51:45.190Z,1010.04
2023-12-18T06:52:45.167Z,1010.09
2023-12-18T06:53:45.125Z,1010.11
2023-12-18T06:54:45.204Z,1010.05
2023-12-18T06:55:45.113Z,1010.02
2023-12-18T06:56:45.115Z,1010.07
2023-12-18T06:57:45.188Z,1010.03
2023-12-18T06:58:45.097Z,1010.00
2023-12-18T06:59:45.086Z,1010.03
2023-12-18T07:00:45.204Z,1010.00
2023-12-18T07:01:45.156Z,1009.99
2023-12-18T07:02:45.187Z,1010.05
2023-12-18T07:03:45.205Z,1010.00
2023-12-18T07:04:45.084Z,1009.97
2023-12-18T07:05:45.016Z,1009.98
2023-12-18T07:06:45.055Z,1009.99
2023-12-18T07:07:45.006Z,1010.00
2023-12-18T07:08:44.998Z,1009.96
2023-12-18T07:09:45.130Z,1010.03
2023-12-18T07:10:44.987Z,1009.97
2023-12-18T07:11:45.038Z,1010.06
2023-12-18T07:12:45.249Z,1009.97
2023-12-18T07:13:44.974Z,1010.06
2023-12-18T07:14:44.996Z,1010.10
2023-12-18T07:15:44.989Z,1010.11
2023-12-18T07:16:44.958Z,1010.10
2023-12-18T07:17:45.004Z,1010.04
2023-12-18T07:18:45.118Z,1010.11
2023-12-18T07:19:44.988Z,1010.01
2023-12-18T07:20:44.912Z,1010.06
2023-12-18T07:21:45.003Z,1010.10
2023-12-18T07:22:45.199Z,1010.14
2023-12-18T07:23:44.910Z,1010.07
2023-12-18T07:24:44.959Z,1010.06
2023-12-18T07:25:44.884Z,1010.18
2023-12-18T07:26:44.916Z,1010.05
2023-12-18T07:27:44.877Z,1010.11
2023-12-18T07:28:44.874Z,1010.09
2023-12-18T07:29:44.944Z,1010.06
2023-12-18T07:30:44.942Z,1010.04
2023-12-18T07:31:44.879Z,1010.06
2023-12-18T07:32:45.130Z,1010.05
2023-12-18T07:33:44.953Z,1010.15
2023-12-18T07:34:44.990Z,1010.13
2023-12-18T07:35:44.863Z,1010.14
2023-12-18T07:36:44.886Z,1010.15
2023-12-18T07:37:44.792Z,1010.15
2023-12-18T07:38:46.342Z,1010.14
2023-12-18T07:39:44.906Z,1010.10
2023-12-18T07:40:44.773Z,1010.11
2023-12-18T07:41:44.760Z,1010.12
2023-12-18T07:42:45.230Z,1010.20
2023-12-18T07:43:44.758Z,1010.15
2023-12-18T07:44:44.767Z,1010.21
2023-12-18T07:45:44.823Z,1010.18
2023-12-18T07:46:44.732Z,1010.24
2023-12-18T07:47:44.801Z,1010.27
2023-12-18T07:48:44.813Z,1010.23
2023-12-18T07:49:48.181Z,1010.23
2023-12-18T07:50:45.704Z,1010.22
2023-12-18T07:51:44.813Z,1010.26
2023-12-18T07:52:44.882Z,1010.30
2023-12-18T07:53:44.679Z,1010.34
2023-12-18T07:54:45.008Z,1010.34
2023-12-18T07:55:44.697Z,1010.26
2023-12-18T07:56:44.661Z,1010.33
2023-12-18T07:57:44.683Z,1010.22
2023-12-18T07:58:44.657Z,1010.17
2023-12-18T07:59:44.961Z,1010.37
2023-12-18T08:00:44.701Z,1010.29
2023-12-18T08:01:44.947Z,1010.39
2023-12-18T08:02:44.849Z,1010.38
2023-12-18T08:03:44.674Z,1010.46
2023-12-18T08:04:44.664Z,1010.50
2023-12-18T08:05:44.633Z,1010.52
2023-12-18T08:06:44.769Z,1010.48
2023-12-18T08:07:44.601Z,1010.39
2023-12-18T08:08:44.586Z,1010.50
2023-12-18T08:09:44.613Z,1010.48
2023-12-18T08:10:44.558Z,1010.35
2023-12-18T08:11:44.553Z,1010.42
2023-12-18T08:12:44.846Z,1010.49
2023-12-18T08:13:44.566Z,1010.37
2023-12-18T08:14:44.543Z,1010.36
2023-12-18T08:15:44.568Z,1010.41
2023-12-18T08:16:44.514Z,1010.33
2023-12-18T08:17:44.557Z,1010.30
2023-12-18T08:18:44.607Z,1010.27
2023-12-18T08:19:44.567Z,1010.31
2023-12-18T08:20:44.482Z,1010.30
2023-12-18T08:21:44.535Z,1010.35
2023-12-18T08:22:44.776Z,1010.30
2023-12-18T08:23:44.485Z,1010.26
2023-12-18T08:24:44.589Z,1010.28
2023-12-18T08:25:44.456Z,1010.25
2023-12-18T08:26:44.441Z,1010.28
2023-12-18T08:27:44.510Z,1010.24
2023-12-18T08:28:44.455Z,1010.22
2023-12-18T08:29:44.444Z,1010.28
2023-12-18T08:30:44.540Z,1010.27
2023-12-18T08:31:44.469Z,1010.32
2023-12-18T08:32:44.676Z,1010.28
2023-12-18T08:33:44.509Z,1010.27
2023-12-18T08:34:44.465Z,1010.34
2023-12-18T08:35:44.387Z,1010.38
2023-12-18T08:36:44.416Z,1010.35
2023-12-18T08:37:44.411Z,1010.29
2023-12-18T08:38:44.372Z,1010.24
2023-12-18T08:39:44.438Z,1010.31
2023-12-18T08:40:44.344Z,1010.21
2023-12-18T08:41:44.347Z,1010.41
2023-12-18T08:42:44.707Z,1010.35
2023-12-18T08:43:46.895Z,1010.36
2023-12-18T08:44:45.315Z,1010.30
2023-12-18T08:45:44.368Z,1010.40
2023-12-18T08:46:44.309Z,1010.41
2023-12-18T08:47:44.466Z,1010.39
2023-12-18T08:48:44.464Z,1010.40
2023-12-18T08:49:44.291Z,1010.44
2023-12-18T08:50:44.296Z,1010.39
2023-12-18T08:51:44.335Z,1010.47
2023-12-18T08:52:44.493Z,1010.45
2023-12-18T08:53:44.276Z,1010.51
2023-12-18T08:54:44.269Z,1010.56
2023-12-18T08:55:44.270Z,1010.60
2023-12-18T08:56:44.233Z,1010.54
2023-12-18T08:57:44.309Z,1010.50
2023-12-18T08:58:44.261Z,1010.48
2023-12-18T08:59:44.214Z,1010.51
2023-12-18T09:00:44.383Z,1010.46
2023-12-18T09:01:44.231Z,1010.38
2023-12-18T09:02:44.432Z,1010.45
2023-12-18T09:03:44.245Z,1010.45
2023-12-18T09:04:44.228Z,1010.41
2023-12-18T09:05:44.370Z,1010.47
2023-12-18T09:06:44.256Z,1010.48
2023-12-18T09:07:44.183Z,1010.48
2023-12-18T09:08:44.149Z,1010.51
2023-12-18T09:09:44.314Z,1010.48
2023-12-18T09:10:44.122Z,1010.38
2023-12-18T09:11:44.205Z,1010.43
2023-12-18T09:12:44.431Z,1010.47
2023-12-18T09:13:44.114Z,1010.41
2023-12-18T09:14:44.125Z,1010.47
2023-12-18T09:15:44.110Z,1010.50
2023-12-18T09:16:44.093Z,1010.48
2023-12-18T09:17:44.112Z,1010.46
2023-12-18T09:18:44.168Z,1010.49
2023-12-18T09:19:44.156Z,1010.46
2023-12-18T09:20:44.092Z,1010.44
2023-12-18T09:21:44.095Z,1010.49
2023-12-18T09:22:44.268Z,1010.47
2023-12-18T09:23:44.046Z,1010.46
2023-12-18T09:24:44.122Z,1010.41
2023-12-18T09:25:44.029Z,1010.41
2023-12-18T09:26:44.022Z,1010.32
2023-12-18T09:27:44.073Z,1010.34
2023-12-18T09:28:44.054Z,1010.42
2023-12-18T09:29:44.025Z,1010.40
2023-12-18T09:30:44.653Z,1010.44
2023-12-18T09:31:44.062Z,1010.40
2023-12-18T09:32:44.381Z,1010.42
2023-12-18T09:33:44.168Z,1010.34
2023-12-18T09:34:44.199Z,1010.32
2023-12-18T09:35:43.956Z,1010.28
2023-12-18T09:36:44.022Z,1010.34
2023-12-18T09:37:43.945Z,1010.34
2023-12-18T09:38:43.928Z,1010.26
2023-12-18T09:39:43.996Z,1010.23
2023-12-18T09:40:43.921Z,1010.23
2023-12-18T09:41:43.913Z,1010.23
2023-12-18T09:42:44.121Z,1010.16
2023-12-18T09:43:43.946Z,1010.19
2023-12-18T09:44:43.919Z,1010.20
2023-12-18T09:45:43.935Z,1010.18
2023-12-18T09:46:43.896Z,1010.14
2023-12-18T09:47:43.901Z,1010.16
2023-12-18T09:48:43.943Z,1010.18
2023-12-18T09:49:43.978Z,1010.14
2023-12-18T09:50:43.866Z,1010.14
2023-12-18T09:51:43.968Z,1010.16
2023-12-18T09:52:44.138Z,1010.05
2023-12-18T09:53:43.833Z,1010.05
2023-12-18T09:54:44.029Z,1010.11
2023-12-18T09:55:43.854Z,1010.08
2023-12-18T09:56:43.818Z,1010.14
2023-12-18T09:57:43.917Z,1010.18
2023-12-18T09:58:43.802Z,1010.13
2023-12-18T09:59:43.817Z,1010.12
2023-12-18T10:00:43.938Z,1010.13
2023-12-18T10:01:43.842Z,1010.12
2023-12-18T10:02:44.069Z,1010.03
2023-12-18T10:03:43.848Z,1010.14
2023-12-18T10:04:43.814Z,1010.13
2023-12-18T10:05:43.796Z,1010.09
2023-12-18T10:06:43.804Z,1010.02
2023-12-18T10:07:43.761Z,1010.02
2023-12-18T10:08:43.731Z,1010.12
2023-12-18T10:09:43.763Z,1010.04
2023-12-18T10:10:43.718Z,1010.07
2023-12-18T10:11:43.718Z,1010.05
2023-12-18T10:12:44.229Z,1009.96
2023-12-18T10:13:43.704Z,1010.04
2023-12-18T10:14:43.696Z,1009.94
2023-12-18T10:15:44.264Z,1010.01
2023-12-18T10:16:43.722Z,1010.02
2023-12-18T10:17:43.836Z,1010.10
2023-12-18T10:18:43.727Z,1010.00
2023-12-18T10:19:43.789Z,1010.02
2023-12-18T10:20:43.665Z,1009.94
2023-12-18T10:21:43.682Z,1009.96
2023-12-18T10:22:43.929Z,1009.95
2023-12-18T10:23:43.641Z,1009.90
2023-12-18T10:24:43.692Z,1009.88
2023-12-18T10:25:43.618Z,1009.87
2023-12-18T10:26:43.613Z,1009.83
2023-12-18T10:27:43.673Z,1009.86
2023-12-18T10:28:43.606Z,1009.76
2023-12-18T10:29:43.621Z,1009.86
2023-12-18T10:30:43.657Z,1009.81
2023-12-18T10:31:43.719Z,1009.67
2023-12-18T10:32:43.847Z,1009.67
2023-12-18T10:33:43.702Z,1009.63
2023-12-18T10:34:43.694Z,1009.68
2023-12-18T10:35:43.567Z,1009.71
2023-12-18T10:36:43.626Z,1009.72
2023-12-18T10:37:43.633Z,1009.67
2023-12-18T10:38:43.532Z,1009.76
2023-12-18T10:39:43.642Z,1009.58
2023-12-18T10:40:43.526Z,1009.59
2023-12-18T10:41:44.412Z,1009.61
2023-12-18T10:42:43.803Z,1009.51
2023-12-18T10:43:43.499Z,1009.57
2023-12-18T10:44:43.505Z,1009.51
2023-12-18T10:45:43.534Z,1009.56
2023-12-18T10:46:43.479Z,1009.57
2023-12-18T10:47:43.560Z,1009.51
2023-12-18T10:48:43.573Z,1009.50
2023-12-18T10:49:43.644Z,1009.56
2023-12-18T10:50:43.459Z,1009.45
2023-12-18T10:51:43.482Z,1009.49
2023-12-18T10:52:43.609Z,1009.39
2023-12-18T10:53:43.436Z,1009.31
2023-12-18T10:54:43.513Z,1009.27
2023-12-18T10:55:43.412Z,1009.28
2023-12-18T10:56:43.512Z,1009.27
2023-12-18T10:57:43.856Z,1009.28
2023-12-18T10:58:43.393Z,1009.27
2023-12-18T10:59:43.408Z,1009.31
2023-12-18T11:00:43.437Z,1009.26
2023-12-18T11:01:43.427Z,1009.21
2023-12-18T11:02:43.376Z,1009.21
2023-12-18T11:03:43.456Z,1009.16
2023-12-18T11:04:43.410Z,1009.09
2023-12-18T11:05:43.413Z,1009.09
2023-12-18T11:06:43.381Z,1009.09
2023-12-18T11:07:43.574Z,1009.12
2023-12-18T11:08:43.365Z,1009.15
2023-12-18T11:09:43.400Z,1009.14
2023-12-18T11:10:43.509Z,1009.16
2023-12-18T11:11:43.305Z,1009.06
2023-12-18T11:12:43.354Z,1009.09
2023-12-18T11:13:43.284Z,1009.05
2023-12-18T11:14:43.315Z,1009.08
2023-12-18T11:15:43.301Z,1009.06
2023-12-18T11:16:43.340Z,1009.00
2023-12-18T11:17:43.666Z,1009.01
2023-12-18T11:18:43.353Z,1009.04
2023-12-18T11:19:43.364Z,1008.99
2023-12-18T11:20:43.657Z,1008.92
2023-12-18T11:21:43.261Z,1008.90
2023-12-18T11:22:43.291Z,1008.83
2023-12-18T11:23:43.219Z,1008.91
2023-12-18T11:24:43.240Z,1008.87
2023-12-18T11:25:43.223Z,1008.80
2023-12-18T11:26:43.201Z,1008.82
2023-12-18T11:27:43.488Z,1008.81
2023-12-18T11:28:43.198Z,1008.73
2023-12-18T11:29:43.241Z,1008.72
2023-12-18T11:30:43.251Z,1008.78
2023-12-18T11:31:43.226Z,1008.72
2023-12-18T11:32:43.488Z,1008.69
2023-12-18T11:33:48.833Z,1008.74
2023-12-18T11:34:44.235Z,1008.77
2023-12-18T11:35:43.163Z,1008.75
2023-12-18T11:36:43.191Z,1008.78
2023-12-18T11:37:43.122Z,1008.68
2023-12-18T11:38:43.157Z,1008.66
2023-12-18T11:39:43.232Z,1008.73
2023-12-18T11:40:43.191Z,1008.67
2023-12-18T11:41:43.101Z,1008.67
2023-12-18T11:42:43.329Z,1008.67
2023-12-18T11:43:43.088Z,1008.63
2023-12-18T11:44:43.111Z,1008.66
2023-12-18T11:45:43.129Z,1008.65
2023-12-18T11:46:43.068Z,1008.56
2023-12-18T11:47:43.066Z,1008.58
2023-12-18T11:48:43.176Z,1008.55
2023-12-18T11:49:43.286Z,1008.56
2023-12-18T11:50:43.075Z,1008.56
2023-12-18T11:51:43.102Z,1008.59
2023-12-18T11:52:43.237Z,1008.51
2023-12-18T11:53:43.012Z,1008.50
2023-12-18T11:54:43.049Z,1008.50
2023-12-18T11:55:44.640Z,1008.51
2023-12-18T11:56:42.983Z,1008.62
2023-12-18T11:57:42.996Z,1008.67
2023-12-18T11:58:43.120Z,1008.61
2023-12-18T11:59:42.971Z,1008.50
2023-12-18T12:00:43.189Z,1008.56
2023-12-18T12:01:43.004Z,1008.52
2023-12-18T12:02:43.257Z,1008.48
2023-12-18T12:03:43.154Z,1008.53
2023-12-18T12:04:43.069Z,1008.48
2023-12-18T12:05:42.972Z,1008.45